sensor_id;sensor_type;location;lat;lon;timestamp;P1;durP1;ratioP1;P2;durP2;ratioP2
46845;SDS011;33947;46.804;134.252;2022-09-09T00:02:34;10.30;;;2.45;;
46845;SDS011;33947;46.804;134.252;2022-09-09T00:09:16;4.78;;;2.33;;
46845;SDS011;33947;46.804;134.252;2022-09-09T00:15:57;4.00;;;2.00;;
46845;SDS011;33947;46.804;134.252;2022-09-09T00:19:24;5.75;;;1.83;;
46845;SDS011;33947;46.804;134.252;2022-09-09T00:23:12;2.25;;;1.50;;
46845;SDS011;33947;46.804;134.252;2022-09-09T00:29:40;3.55;;;1.50;;
46845;SDS011;33947;46.804;134.252;2022-09-09T00:32:46;3.70;;;1.55;;
46845;SDS011;33947;46.804;134.252;2022-09-09T00:35:59;5.45;;;1.80;;
46845;SDS011;33947;46.804;134.252;2022-09-09T00:39:14;6.63;;;1.80;;
46845;SDS011;33947;46.804;134.252;2022-09-09T00:42:42;3.05;;;1.20;;
46845;SDS011;33947;46.804;134.252;2022-09-09T00:49:34;2.75;;;1.60;;
46845;SDS011;33947;46.804;134.252;2022-09-09T00:56:13;4.20;;;1.30;;
46845;SDS011;33947;46.804;134.252;2022-09-09T00:59:45;6.68;;;1.30;;
46845;SDS011;33947;46.804;134.252;2022-09-09T01:09:42;3.25;;;0.85;;
46845;SDS011;33947;46.804;134.252;2022-09-09T01:16:14;4.50;;;0.98;;
46845;SDS011;33947;46.804;134.252;2022-09-09T01:19:24;5.80;;;1.48;;
46845;SDS011;33947;46.804;134.252;2022-09-09T01:29:13;7.97;;;2.55;;
46845;SDS011;33947;46.804;134.252;2022-09-09T01:35:52;33.55;;;4.75;;
46845;SDS011;33947;46.804;134.252;2022-09-09T01:39:23;12.02;;;2.00;;
46845;SDS011;33947;46.804;134.252;2022-09-09T01:45:54;7.38;;;2.60;;
46845;SDS011;33947;46.804;134.252;2022-09-09T01:49:03;0.52;;;0.40;;
46845;SDS011;33947;46.804;134.252;2022-09-09T01:52:11;6.57;;;1.00;;
46845;SDS011;33947;46.804;134.252;2022-09-09T01:55:16;9.05;;;3.33;;
46845;SDS011;33947;46.804;134.252;2022-09-09T02:04:52;20.58;;;2.67;;
46845;SDS011;33947;46.804;134.252;2022-09-09T02:08:08;0.95;;;0.75;;
46845;SDS011;33947;46.804;134.252;2022-09-09T02:11:41;3.40;;;0.75;;
46845;SDS011;33947;46.804;134.252;2022-09-09T02:15:12;2.90;;;2.00;;
46845;SDS011;33947;46.804;134.252;2022-09-09T02:18:29;4.65;;;2.25;;
46845;SDS011;33947;46.804;134.252;2022-09-09T02:21:40;1.95;;;1.52;;
46845;SDS011;33947;46.804;134.252;2022-09-09T02:24:48;1.30;;;0.57;;
46845;SDS011;33947;46.804;134.252;2022-09-09T02:27:59;10.73;;;1.33;;
46845;SDS011;33947;46.804;134.252;2022-09-09T02:31:05;1.98;;;0.50;;
46845;SDS011;33947;46.804;134.252;2022-09-09T02:34:15;4.75;;;1.23;;
46845;SDS011;33947;46.804;134.252;2022-09-09T02:37:26;4.00;;;1.10;;
46845;SDS011;33947;46.804;134.252;2022-09-09T02:40:36;4.45;;;1.15;;
46845;SDS011;33947;46.804;134.252;2022-09-09T02:43:42;3.15;;;0.90;;
46845;SDS011;33947;46.804;134.252;2022-09-09T02:47:03;2.88;;;0.70;;
46845;SDS011;33947;46.804;134.252;2022-09-09T02:50:34;1.33;;;0.45;;
46845;SDS011;33947;46.804;134.252;2022-09-09T02:57:28;0.82;;;0.43;;
46845;SDS011;33947;46.804;134.252;2022-09-09T03:00:37;1.42;;;0.50;;
46845;SDS011;33947;46.804;134.252;2022-09-09T03:03:44;7.47;;;0.90;;
46845;SDS011;33947;46.804;134.252;2022-09-09T03:06:51;2.05;;;1.00;;
46845;SDS011;33947;46.804;134.252;2022-09-09T03:09:56;7.28;;;1.15;;
46845;SDS011;33947;46.804;134.252;2022-09-09T03:13:04;3.65;;;0.88;;
46845;SDS011;33947;46.804;134.252;2022-09-09T03:16:13;1.35;;;0.70;;
46845;SDS011;33947;46.804;134.252;2022-09-09T03:19:22;1.23;;;0.60;;
46845;SDS011;33947;46.804;134.252;2022-09-09T03:22:28;5.85;;;0.70;;
46845;SDS011;33947;46.804;134.252;2022-09-09T03:25:34;7.05;;;1.20;;
46845;SDS011;33947;46.804;134.252;2022-09-09T03:28:41;4.05;;;0.63;;
46845;SDS011;33947;46.804;134.252;2022-09-09T03:31:52;7.55;;;0.68;;
46845;SDS011;33947;46.804;134.252;2022-09-09T03:38:04;1.50;;;0.68;;
46845;SDS011;33947;46.804;134.252;2022-09-09T03:41:10;1.15;;;0.55;;
46845;SDS011;33947;46.804;134.252;2022-09-09T03:44:17;8.98;;;1.33;;
46845;SDS011;33947;46.804;134.252;2022-09-09T03:47:22;1.88;;;0.65;;
46845;SDS011;33947;46.804;134.252;2022-09-09T03:50:32;2.47;;;0.80;;
46845;SDS011;33947;46.804;134.252;2022-09-09T03:53:38;8.07;;;1.80;;
46845;SDS011;33947;46.804;134.252;2022-09-09T03:56:43;9.05;;;1.42;;
46845;SDS011;33947;46.804;134.252;2022-09-09T03:59:50;5.53;;;0.70;;
46845;SDS011;33947;46.804;134.252;2022-09-09T04:02:56;2.40;;;0.63;;
46845;SDS011;33947;46.804;134.252;2022-09-09T04:06:02;3.05;;;0.65;;
46845;SDS011;33947;46.804;134.252;2022-09-09T04:09:08;2.45;;;0.60;;
46845;SDS011;33947;46.804;134.252;2022-09-09T04:12:13;2.88;;;0.98;;
46845;SDS011;33947;46.804;134.252;2022-09-09T04:15:18;3.38;;;0.40;;
46845;SDS011;33947;46.804;134.252;2022-09-09T04:18:23;0.70;;;0.70;;
46845;SDS011;33947;46.804;134.252;2022-09-09T04:21:30;2.63;;;0.50;;
46845;SDS011;33947;46.804;134.252;2022-09-09T04:24:36;1.75;;;0.65;;
46845;SDS011;33947;46.804;134.252;2022-09-09T04:27:41;1.88;;;0.60;;
46845;SDS011;33947;46.804;134.252;2022-09-09T04:30:47;2.90;;;0.75;;
46845;SDS011;33947;46.804;134.252;2022-09-09T04:33:53;1.02;;;0.65;;
46845;SDS011;33947;46.804;134.252;2022-09-09T04:36:58;4.88;;;0.50;;
46845;SDS011;33947;46.804;134.252;2022-09-09T04:40:04;5.07;;;3.28;;
46845;SDS011;33947;46.804;134.252;2022-09-09T04:43:09;7.35;;;2.80;;
46845;SDS011;33947;46.804;134.252;2022-09-09T04:46:18;3.58;;;0.88;;
46845;SDS011;33947;46.804;134.252;2022-09-09T04:49:23;0.95;;;0.40;;
46845;SDS011;33947;46.804;134.252;2022-09-09T04:52:30;2.80;;;0.98;;
46845;SDS011;33947;46.804;134.252;2022-09-09T04:55:36;5.25;;;2.00;;
46845;SDS011;33947;46.804;134.252;2022-09-09T04:58:41;4.93;;;1.35;;
46845;SDS011;33947;46.804;134.252;2022-09-09T05:01:48;4.80;;;1.33;;
46845;SDS011;33947;46.804;134.252;2022-09-09T05:04:55;2.97;;;1.40;;
46845;SDS011;33947;46.804;134.252;2022-09-09T05:14:27;12.15;;;2.03;;
46845;SDS011;33947;46.804;134.252;2022-09-09T05:17:31;2.97;;;0.70;;
46845;SDS011;33947;46.804;134.252;2022-09-09T05:20:37;4.18;;;0.70;;
46845;SDS011;33947;46.804;134.252;2022-09-09T05:23:42;1.30;;;0.45;;
46845;SDS011;33947;46.804;134.252;2022-09-09T05:26:49;1.33;;;0.63;;
46845;SDS011;33947;46.804;134.252;2022-09-09T05:29:54;1.95;;;0.47;;
46845;SDS011;33947;46.804;134.252;2022-09-09T05:33:00;2.22;;;0.50;;
46845;SDS011;33947;46.804;134.252;2022-09-09T05:36:06;2.42;;;0.63;;
46845;SDS011;33947;46.804;134.252;2022-09-09T05:39:12;3.25;;;0.60;;
46845;SDS011;33947;46.804;134.252;2022-09-09T05:42:17;1.38;;;0.60;;
46845;SDS011;33947;46.804;134.252;2022-09-09T05:45:22;4.18;;;0.82;;
46845;SDS011;33947;46.804;134.252;2022-09-09T05:48:28;3.80;;;0.80;;
46845;SDS011;33947;46.804;134.252;2022-09-09T05:51:52;1.40;;;0.70;;
46845;SDS011;33947;46.804;134.252;2022-09-09T05:54:58;1.08;;;0.60;;
46845;SDS011;33947;46.804;134.252;2022-09-09T05:58:03;1.88;;;0.43;;
46845;SDS011;33947;46.804;134.252;2022-09-09T06:01:12;2.90;;;0.52;;
46845;SDS011;33947;46.804;134.252;2022-09-09T06:04:20;0.30;;;0.30;;
46845;SDS011;33947;46.804;134.252;2022-09-09T06:07:26;6.30;;;1.33;;
46845;SDS011;33947;46.804;134.252;2022-09-09T06:10:31;1.13;;;0.30;;
46845;SDS011;33947;46.804;134.252;2022-09-09T06:13:36;2.53;;;0.60;;
46845;SDS011;33947;46.804;134.252;2022-09-09T06:16:43;3.53;;;1.00;;
46845;SDS011;33947;46.804;134.252;2022-09-09T06:19:54;2.42;;;0.70;;
46845;SDS011;33947;46.804;134.252;2022-09-09T06:26:11;2.08;;;0.60;;
46845;SDS011;33947;46.804;134.252;2022-09-09T06:29:24;2.15;;;1.33;;
46845;SDS011;33947;46.804;134.252;2022-09-09T06:32:29;0.40;;;0.40;;
46845;SDS011;33947;46.804;134.252;2022-09-09T06:35:35;10.45;;;1.50;;
46845;SDS011;33947;46.804;134.252;2022-09-09T06:38:40;0.90;;;0.40;;
46845;SDS011;33947;46.804;134.252;2022-09-09T06:41:49;1.05;;;0.43;;
46845;SDS011;33947;46.804;134.252;2022-09-09T06:45:14;2.97;;;0.98;;
46845;SDS011;33947;46.804;134.252;2022-09-09T06:48:26;2.53;;;1.13;;
46845;SDS011;33947;46.804;134.252;2022-09-09T06:51:33;3.92;;;0.70;;
46845;SDS011;33947;46.804;134.252;2022-09-09T06:54:40;2.92;;;0.55;;
46845;SDS011;33947;46.804;134.252;2022-09-09T06:57:45;15.57;;;2.75;;
46845;SDS011;33947;46.804;134.252;2022-09-09T07:01:05;0.40;;;0.40;;
46845;SDS011;33947;46.804;134.252;2022-09-09T07:04:12;2.17;;;0.50;;
46845;SDS011;33947;46.804;134.252;2022-09-09T07:07:19;0.40;;;0.40;;
46845;SDS011;33947;46.804;134.252;2022-09-09T07:10:25;1.30;;;0.60;;
46845;SDS011;33947;46.804;134.252;2022-09-09T07:13:30;1.40;;;0.60;;
46845;SDS011;33947;46.804;134.252;2022-09-09T07:16:35;5.22;;;1.17;;
46845;SDS011;33947;46.804;134.252;2022-09-09T07:19:44;11.23;;;2.15;;
46845;SDS011;33947;46.804;134.252;2022-09-09T07:22:54;0.43;;;0.43;;
46845;SDS011;33947;46.804;134.252;2022-09-09T07:26:00;0.50;;;0.50;;
46845;SDS011;33947;46.804;134.252;2022-09-09T07:29:06;1.88;;;1.25;;
46845;SDS011;33947;46.804;134.252;2022-09-09T07:32:11;1.23;;;0.60;;
46845;SDS011;33947;46.804;134.252;2022-09-09T07:35:16;0.73;;;0.73;;
46845;SDS011;33947;46.804;134.252;2022-09-09T07:38:21;2.15;;;1.02;;
46845;SDS011;33947;46.804;134.252;2022-09-09T07:41:27;2.85;;;1.23;;
46845;SDS011;33947;46.804;134.252;2022-09-09T07:44:39;4.15;;;1.40;;
46845;SDS011;33947;46.804;134.252;2022-09-09T07:47:49;15.32;;;2.50;;
46845;SDS011;33947;46.804;134.252;2022-09-09T07:51:05;4.28;;;1.20;;
46845;SDS011;33947;46.804;134.252;2022-09-09T07:54:16;4.55;;;1.02;;
46845;SDS011;33947;46.804;134.252;2022-09-09T07:57:28;10.20;;;1.83;;
46845;SDS011;33947;46.804;134.252;2022-09-09T08:00:37;20.95;;;2.20;;
46845;SDS011;33947;46.804;134.252;2022-09-09T08:03:44;9.93;;;1.63;;
46845;SDS011;33947;46.804;134.252;2022-09-09T08:06:53;6.55;;;1.48;;
46845;SDS011;33947;46.804;134.252;2022-09-09T08:10:00;6.82;;;1.60;;
46845;SDS011;33947;46.804;134.252;2022-09-09T08:13:08;7.05;;;1.25;;
46845;SDS011;33947;46.804;134.252;2022-09-09T08:16:29;8.48;;;1.52;;
46845;SDS011;33947;46.804;134.252;2022-09-09T08:19:35;6.20;;;1.35;;
46845;SDS011;33947;46.804;134.252;2022-09-09T08:22:46;6.50;;;0.90;;
46845;SDS011;33947;46.804;134.252;2022-09-09T08:26:03;13.35;;;2.40;;
46845;SDS011;33947;46.804;134.252;2022-09-09T08:29:09;17.50;;;2.63;;
46845;SDS011;33947;46.804;134.252;2022-09-09T08:32:20;25.88;;;10.57;;
46845;SDS011;33947;46.804;134.252;2022-09-09T08:35:26;16.02;;;7.55;;
46845;SDS011;33947;46.804;134.252;2022-09-09T08:45:50;10.93;;;4.70;;
46845;SDS011;33947;46.804;134.252;2022-09-09T08:51:58;25.33;;;4.93;;
46845;SDS011;33947;46.804;134.252;2022-09-09T08:55:28;13.68;;;4.60;;
46845;SDS011;33947;46.804;134.252;2022-09-09T08:58:44;10.57;;;4.35;;
46845;SDS011;33947;46.804;134.252;2022-09-09T09:02:32;11.45;;;4.40;;
46845;SDS011;33947;46.804;134.252;2022-09-09T09:12:44;11.98;;;3.80;;
46845;SDS011;33947;46.804;134.252;2022-09-09T09:15:55;8.52;;;2.90;;
46845;SDS011;33947;46.804;134.252;2022-09-09T09:19:08;4.32;;;2.53;;
46845;SDS011;33947;46.804;134.252;2022-09-09T09:25:52;5.15;;;2.40;;
46845;SDS011;33947;46.804;134.252;2022-09-09T09:29:11;3.45;;;2.50;;
46845;SDS011;33947;46.804;134.252;2022-09-09T09:32:28;7.32;;;3.08;;
46845;SDS011;33947;46.804;134.252;2022-09-09T09:35:39;17.55;;;5.53;;
46845;SDS011;33947;46.804;134.252;2022-09-09T09:38:57;26.70;;;15.70;;
46845;SDS011;33947;46.804;134.252;2022-09-09T09:42:23;26.13;;;12.68;;
46845;SDS011;33947;46.804;134.252;2022-09-09T09:45:41;16.10;;;7.13;;
46845;SDS011;33947;46.804;134.252;2022-09-09T09:49:09;17.23;;;7.53;;
46845;SDS011;33947;46.804;134.252;2022-09-09T09:52:15;15.73;;;7.47;;
46845;SDS011;33947;46.804;134.252;2022-09-09T09:55:24;17.10;;;7.00;;
46845;SDS011;33947;46.804;134.252;2022-09-09T09:58:31;17.67;;;8.60;;
46845;SDS011;33947;46.804;134.252;2022-09-09T10:01:38;21.65;;;9.40;;
46845;SDS011;33947;46.804;134.252;2022-09-09T10:04:45;18.35;;;7.80;;
46845;SDS011;33947;46.804;134.252;2022-09-09T10:11:46;18.90;;;8.70;;
46845;SDS011;33947;46.804;134.252;2022-09-09T10:28:47;20.20;;;6.97;;
46845;SDS011;33947;46.804;134.252;2022-09-09T10:32:04;17.50;;;12.07;;
46845;SDS011;33947;46.804;134.252;2022-09-09T10:45:47;25.92;;;10.93;;
46845;SDS011;33947;46.804;134.252;2022-09-09T10:55:37;36.08;;;13.27;;
46845;SDS011;33947;46.804;134.252;2022-09-09T10:59:28;32.72;;;13.15;;
46845;SDS011;33947;46.804;134.252;2022-09-09T11:08:53;16.15;;;6.65;;
46845;SDS011;33947;46.804;134.252;2022-09-09T11:12:00;17.25;;;7.93;;
46845;SDS011;33947;46.804;134.252;2022-09-09T11:15:08;15.02;;;7.32;;
46845;SDS011;33947;46.804;134.252;2022-09-09T11:18:22;14.80;;;6.95;;
46845;SDS011;33947;46.804;134.252;2022-09-09T11:24:39;15.68;;;5.13;;
46845;SDS011;33947;46.804;134.252;2022-09-09T11:41:33;9.95;;;5.00;;
46845;SDS011;33947;46.804;134.252;2022-09-09T11:44:41;11.73;;;6.13;;
46845;SDS011;33947;46.804;134.252;2022-09-09T11:47:54;11.90;;;6.22;;
46845;SDS011;33947;46.804;134.252;2022-09-09T11:51:05;12.25;;;5.68;;
46845;SDS011;33947;46.804;134.252;2022-09-09T11:54:32;12.93;;;5.72;;
46845;SDS011;33947;46.804;134.252;2022-09-09T11:57:48;10.65;;;5.38;;
46845;SDS011;33947;46.804;134.252;2022-09-09T12:01:16;9.77;;;5.15;;
46845;SDS011;33947;46.804;134.252;2022-09-09T12:05:07;11.98;;;4.70;;
46845;SDS011;33947;46.804;134.252;2022-09-09T12:08:16;9.00;;;4.93;;
46845;SDS011;33947;46.804;134.252;2022-09-09T12:18:04;9.20;;;4.13;;
46845;SDS011;33947;46.804;134.252;2022-09-09T12:21:21;9.40;;;5.07;;
46845;SDS011;33947;46.804;134.252;2022-09-09T12:28:21;5.55;;;2.90;;
46845;SDS011;33947;46.804;134.252;2022-09-09T12:38:32;2.72;;;1.40;;
46845;SDS011;33947;46.804;134.252;2022-09-09T12:41:40;3.22;;;1.25;;
46845;SDS011;33947;46.804;134.252;2022-09-09T12:44:53;4.85;;;1.23;;
46845;SDS011;33947;46.804;134.252;2022-09-09T12:48:06;4.57;;;2.30;;
46845;SDS011;33947;46.804;134.252;2022-09-09T12:51:29;2.72;;;1.85;;
46845;SDS011;33947;46.804;134.252;2022-09-09T12:54:36;2.47;;;1.70;;
46845;SDS011;33947;46.804;134.252;2022-09-09T12:57:42;7.32;;;1.90;;
46845;SDS011;33947;46.804;134.252;2022-09-09T13:04:01;6.78;;;3.15;;
46845;SDS011;33947;46.804;134.252;2022-09-09T13:10:14;6.82;;;2.35;;
46845;SDS011;33947;46.804;134.252;2022-09-09T13:13:39;7.82;;;2.83;;
46845;SDS011;33947;46.804;134.252;2022-09-09T13:17:01;5.05;;;2.15;;
46845;SDS011;33947;46.804;134.252;2022-09-09T13:20:16;5.90;;;2.40;;
46845;SDS011;33947;46.804;134.252;2022-09-09T13:23:22;4.53;;;2.22;;
46845;SDS011;33947;46.804;134.252;2022-09-09T13:26:32;3.53;;;1.83;;
46845;SDS011;33947;46.804;134.252;2022-09-09T13:29:38;6.60;;;2.00;;
46845;SDS011;33947;46.804;134.252;2022-09-09T13:32:44;4.13;;;1.90;;
46845;SDS011;33947;46.804;134.252;2022-09-09T13:36:03;1.77;;;1.40;;
46845;SDS011;33947;46.804;134.252;2022-09-09T13:39:15;6.25;;;1.88;;
46845;SDS011;33947;46.804;134.252;2022-09-09T13:42:28;5.47;;;2.35;;
46845;SDS011;33947;46.804;134.252;2022-09-09T13:45:35;4.10;;;2.67;;
46845;SDS011;33947;46.804;134.252;2022-09-09T13:48:53;13.23;;;7.63;;
46845;SDS011;33947;46.804;134.252;2022-09-09T13:52:05;12.52;;;6.97;;
46845;SDS011;33947;46.804;134.252;2022-09-09T13:55:14;11.23;;;6.38;;
46845;SDS011;33947;46.804;134.252;2022-09-09T13:58:19;13.20;;;6.10;;
46845;SDS011;33947;46.804;134.252;2022-09-09T14:01:25;14.25;;;8.20;;
46845;SDS011;33947;46.804;134.252;2022-09-09T14:04:31;12.63;;;7.00;;
46845;SDS011;33947;46.804;134.252;2022-09-09T14:07:39;13.25;;;6.18;;
46845;SDS011;33947;46.804;134.252;2022-09-09T14:10:45;8.05;;;5.28;;
46845;SDS011;33947;46.804;134.252;2022-09-09T14:13:50;8.52;;;5.00;;
46845;SDS011;33947;46.804;134.252;2022-09-09T14:16:55;8.68;;;5.50;;
46845;SDS011;33947;46.804;134.252;2022-09-09T14:20:00;9.30;;;4.40;;
46845;SDS011;33947;46.804;134.252;2022-09-09T14:23:05;8.20;;;4.90;;
46845;SDS011;33947;46.804;134.252;2022-09-09T14:26:10;12.30;;;4.68;;
46845;SDS011;33947;46.804;134.252;2022-09-09T14:29:15;11.73;;;5.70;;
46845;SDS011;33947;46.804;134.252;2022-09-09T14:32:20;8.52;;;4.55;;
46845;SDS011;33947;46.804;134.252;2022-09-09T14:35:25;8.55;;;3.80;;
46845;SDS011;33947;46.804;134.252;2022-09-09T14:38:33;11.43;;;3.83;;
46845;SDS011;33947;46.804;134.252;2022-09-09T14:41:46;9.65;;;4.90;;
46845;SDS011;33947;46.804;134.252;2022-09-09T14:44:51;9.07;;;3.80;;
46845;SDS011;33947;46.804;134.252;2022-09-09T14:47:56;9.77;;;5.68;;
46845;SDS011;33947;46.804;134.252;2022-09-09T14:51:07;7.35;;;3.60;;
46845;SDS011;33947;46.804;134.252;2022-09-09T14:54:13;8.80;;;3.30;;
46845;SDS011;33947;46.804;134.252;2022-09-09T14:57:18;5.90;;;3.38;;
46845;SDS011;33947;46.804;134.252;2022-09-09T15:00:24;7.25;;;3.72;;
46845;SDS011;33947;46.804;134.252;2022-09-09T15:03:28;8.05;;;3.10;;
46845;SDS011;33947;46.804;134.252;2022-09-09T15:06:34;6.85;;;3.38;;
46845;SDS011;33947;46.804;134.252;2022-09-09T15:09:43;10.63;;;3.22;;
46845;SDS011;33947;46.804;134.252;2022-09-09T15:12:48;8.07;;;3.33;;
46845;SDS011;33947;46.804;134.252;2022-09-09T15:15:53;8.17;;;3.50;;
46845;SDS011;33947;46.804;134.252;2022-09-09T15:18:59;7.68;;;4.03;;
46845;SDS011;33947;46.804;134.252;2022-09-09T15:22:05;10.85;;;5.60;;
46845;SDS011;33947;46.804;134.252;2022-09-09T15:25:10;12.52;;;9.73;;
46845;SDS011;33947;46.804;134.252;2022-09-09T15:28:16;8.40;;;7.32;;
46845;SDS011;33947;46.804;134.252;2022-09-09T15:31:22;5.40;;;3.60;;
46845;SDS011;33947;46.804;134.252;2022-09-09T15:34:27;12.23;;;2.63;;
46845;SDS011;33947;46.804;134.252;2022-09-09T15:37:32;4.17;;;1.50;;
46845;SDS011;33947;46.804;134.252;2022-09-09T15:40:37;4.30;;;1.60;;
46845;SDS011;33947;46.804;134.252;2022-09-09T15:43:43;3.35;;;1.60;;
46845;SDS011;33947;46.804;134.252;2022-09-09T15:46:50;2.17;;;1.67;;
46845;SDS011;33947;46.804;134.252;2022-09-09T15:49:57;5.35;;;3.03;;
46845;SDS011;33947;46.804;134.252;2022-09-09T15:53:03;5.57;;;2.22;;
46845;SDS011;33947;46.804;134.252;2022-09-09T15:56:09;3.90;;;1.70;;
46845;SDS011;33947;46.804;134.252;2022-09-09T15:59:14;7.07;;;1.42;;
46845;SDS011;33947;46.804;134.252;2022-09-09T16:02:19;5.18;;;1.42;;
46845;SDS011;33947;46.804;134.252;2022-09-09T16:05:25;7.60;;;1.90;;
46845;SDS011;33947;46.804;134.252;2022-09-09T16:08:34;7.05;;;1.80;;
46845;SDS011;33947;46.804;134.252;2022-09-09T16:11:40;3.60;;;1.80;;
46845;SDS011;33947;46.804;134.252;2022-09-09T16:14:44;3.47;;;1.90;;
46845;SDS011;33947;46.804;134.252;2022-09-09T16:17:49;2.70;;;1.57;;
46845;SDS011;33947;46.804;134.252;2022-09-09T16:20:57;7.50;;;2.38;;
46845;SDS011;33947;46.804;134.252;2022-09-09T16:24:02;3.22;;;1.85;;
46845;SDS011;33947;46.804;134.252;2022-09-09T16:27:08;5.38;;;2.38;;
46845;SDS011;33947;46.804;134.252;2022-09-09T16:30:13;3.88;;;1.73;;
46845;SDS011;33947;46.804;134.252;2022-09-09T16:33:17;6.70;;;2.10;;
46845;SDS011;33947;46.804;134.252;2022-09-09T16:36:23;6.65;;;2.08;;
46845;SDS011;33947;46.804;134.252;2022-09-09T16:39:29;11.07;;;2.17;;
46845;SDS011;33947;46.804;134.252;2022-09-09T16:42:34;7.20;;;2.13;;
46845;SDS011;33947;46.804;134.252;2022-09-09T16:45:42;7.32;;;1.80;;
46845;SDS011;33947;46.804;134.252;2022-09-09T16:48:48;6.70;;;1.92;;
46845;SDS011;33947;46.804;134.252;2022-09-09T16:51:53;3.85;;;1.73;;
46845;SDS011;33947;46.804;134.252;2022-09-09T16:55:01;5.38;;;2.67;;
46845;SDS011;33947;46.804;134.252;2022-09-09T16:58:06;4.55;;;2.30;;
46845;SDS011;33947;46.804;134.252;2022-09-09T17:01:12;4.00;;;1.90;;
46845;SDS011;33947;46.804;134.252;2022-09-09T17:04:18;3.95;;;1.90;;
46845;SDS011;33947;46.804;134.252;2022-09-09T17:07:27;2.80;;;1.60;;
46845;SDS011;33947;46.804;134.252;2022-09-09T17:10:31;4.65;;;1.90;;
46845;SDS011;33947;46.804;134.252;2022-09-09T17:13:39;5.47;;;2.72;;
46845;SDS011;33947;46.804;134.252;2022-09-09T17:16:48;8.68;;;2.83;;
46845;SDS011;33947;46.804;134.252;2022-09-09T17:19:53;9.68;;;3.08;;
46845;SDS011;33947;46.804;134.252;2022-09-09T17:22:58;8.35;;;2.22;;
46845;SDS011;33947;46.804;134.252;2022-09-09T17:26:06;4.35;;;2.05;;
46845;SDS011;33947;46.804;134.252;2022-09-09T17:29:13;8.80;;;2.20;;
46845;SDS011;33947;46.804;134.252;2022-09-09T17:32:18;6.65;;;2.25;;
46845;SDS011;33947;46.804;134.252;2022-09-09T17:35:22;6.60;;;2.77;;
46845;SDS011;33947;46.804;134.252;2022-09-09T17:38:27;6.32;;;1.90;;
46845;SDS011;33947;46.804;134.252;2022-09-09T17:44:40;4.57;;;2.28;;
46845;SDS011;33947;46.804;134.252;2022-09-09T17:47:45;12.90;;;2.83;;
46845;SDS011;33947;46.804;134.252;2022-09-09T17:50:56;5.93;;;2.50;;
46845;SDS011;33947;46.804;134.252;2022-09-09T17:54:04;10.20;;;2.45;;
46845;SDS011;33947;46.804;134.252;2022-09-09T17:57:13;7.13;;;2.50;;
46845;SDS011;33947;46.804;134.252;2022-09-09T18:03:23;5.43;;;2.58;;
46845;SDS011;33947;46.804;134.252;2022-09-09T18:06:29;6.45;;;2.30;;
46845;SDS011;33947;46.804;134.252;2022-09-09T18:09:39;8.48;;;2.53;;
46845;SDS011;33947;46.804;134.252;2022-09-09T18:12:45;9.73;;;2.63;;
46845;SDS011;33947;46.804;134.252;2022-09-09T18:15:50;7.68;;;2.88;;
46845;SDS011;33947;46.804;134.252;2022-09-09T18:18:55;12.23;;;2.80;;
46845;SDS011;33947;46.804;134.252;2022-09-09T18:22:05;9.65;;;2.40;;
46845;SDS011;33947;46.804;134.252;2022-09-09T18:25:10;9.00;;;2.30;;
46845;SDS011;33947;46.804;134.252;2022-09-09T18:28:14;4.55;;;1.85;;
46845;SDS011;33947;46.804;134.252;2022-09-09T18:31:20;12.70;;;2.25;;
46845;SDS011;33947;46.804;134.252;2022-09-09T18:34:26;3.75;;;2.13;;
46845;SDS011;33947;46.804;134.252;2022-09-09T18:37:32;6.43;;;1.75;;
46845;SDS011;33947;46.804;134.252;2022-09-09T18:40:38;2.67;;;1.70;;
46845;SDS011;33947;46.804;134.252;2022-09-09T18:43:43;3.40;;;2.00;;
46845;SDS011;33947;46.804;134.252;2022-09-09T18:46:48;5.53;;;2.25;;
46845;SDS011;33947;46.804;134.252;2022-09-09T18:49:55;4.50;;;1.83;;
46845;SDS011;33947;46.804;134.252;2022-09-09T18:52:59;7.15;;;2.80;;
46845;SDS011;33947;46.804;134.252;2022-09-09T18:56:05;7.47;;;2.70;;
46845;SDS011;33947;46.804;134.252;2022-09-09T18:59:12;5.30;;;2.80;;
46845;SDS011;33947;46.804;134.252;2022-09-09T19:02:21;4.85;;;2.40;;
46845;SDS011;33947;46.804;134.252;2022-09-09T19:05:26;7.00;;;2.73;;
46845;SDS011;33947;46.804;134.252;2022-09-09T19:08:34;6.23;;;2.60;;
46845;SDS011;33947;46.804;134.252;2022-09-09T19:11:41;9.32;;;3.10;;
46845;SDS011;33947;46.804;134.252;2022-09-09T19:14:46;5.40;;;2.50;;
46845;SDS011;33947;46.804;134.252;2022-09-09T19:17:51;9.07;;;2.58;;
46845;SDS011;33947;46.804;134.252;2022-09-09T19:20:55;9.93;;;3.70;;
46845;SDS011;33947;46.804;134.252;2022-09-09T19:24:01;5.25;;;2.40;;
46845;SDS011;33947;46.804;134.252;2022-09-09T19:27:11;10.57;;;2.78;;
46845;SDS011;33947;46.804;134.252;2022-09-09T19:30:16;4.32;;;2.60;;
46845;SDS011;33947;46.804;134.252;2022-09-09T19:33:20;5.93;;;2.20;;
46845;SDS011;33947;46.804;134.252;2022-09-09T19:36:25;6.70;;;2.67;;
46845;SDS011;33947;46.804;134.252;2022-09-09T19:39:30;8.27;;;2.83;;
46845;SDS011;33947;46.804;134.252;2022-09-09T19:42:37;5.28;;;2.22;;
46845;SDS011;33947;46.804;134.252;2022-09-09T19:45:43;6.57;;;2.38;;
46845;SDS011;33947;46.804;134.252;2022-09-09T19:48:48;6.97;;;2.75;;
46845;SDS011;33947;46.804;134.252;2022-09-09T19:51:52;10.63;;;3.13;;
46845;SDS011;33947;46.804;134.252;2022-09-09T19:58:04;14.83;;;5.50;;
46845;SDS011;33947;46.804;134.252;2022-09-09T20:04:19;9.85;;;4.60;;
46845;SDS011;33947;46.804;134.252;2022-09-09T20:07:24;14.77;;;4.35;;
46845;SDS011;33947;46.804;134.252;2022-09-09T20:10:29;7.57;;;4.18;;
46845;SDS011;33947;46.804;134.252;2022-09-09T20:13:35;12.02;;;4.05;;
46845;SDS011;33947;46.804;134.252;2022-09-09T20:16:44;8.43;;;3.50;;
46845;SDS011;33947;46.804;134.252;2022-09-09T20:19:49;6.03;;;2.35;;
46845;SDS011;33947;46.804;134.252;2022-09-09T20:22:54;5.93;;;2.05;;
46845;SDS011;33947;46.804;134.252;2022-09-09T20:26:00;3.35;;;1.88;;
46845;SDS011;33947;46.804;134.252;2022-09-09T20:29:16;2.65;;;1.42;;
46845;SDS011;33947;46.804;134.252;2022-09-09T20:32:22;4.50;;;1.92;;
46845;SDS011;33947;46.804;134.252;2022-09-09T20:35:27;4.55;;;1.88;;
46845;SDS011;33947;46.804;134.252;2022-09-09T20:38:32;3.88;;;1.38;;
46845;SDS011;33947;46.804;134.252;2022-09-09T20:41:37;2.63;;;1.23;;
46845;SDS011;33947;46.804;134.252;2022-09-09T20:44:43;1.10;;;1.00;;
46845;SDS011;33947;46.804;134.252;2022-09-09T20:47:47;1.00;;;0.90;;
46845;SDS011;33947;46.804;134.252;2022-09-09T20:50:53;2.17;;;1.40;;
46845;SDS011;33947;46.804;134.252;2022-09-09T20:53:58;2.40;;;1.40;;
46845;SDS011;33947;46.804;134.252;2022-09-09T20:57:06;2.83;;;1.40;;
46845;SDS011;33947;46.804;134.252;2022-09-09T21:00:11;4.23;;;1.13;;
46845;SDS011;33947;46.804;134.252;2022-09-09T21:03:17;2.72;;;1.15;;
46845;SDS011;33947;46.804;134.252;2022-09-09T21:06:21;2.72;;;1.30;;
46845;SDS011;33947;46.804;134.252;2022-09-09T21:09:26;4.30;;;1.33;;
46845;SDS011;33947;46.804;134.252;2022-09-09T21:12:31;2.97;;;1.30;;
46845;SDS011;33947;46.804;134.252;2022-09-09T21:15:35;2.65;;;1.02;;
46845;SDS011;33947;46.804;134.252;2022-09-09T21:18:40;3.90;;;1.30;;
46845;SDS011;33947;46.804;134.252;2022-09-09T21:21:46;10.93;;;2.28;;